CFG1AF EDDF-LGSM
Flight info
| Callsign | CFG1AF |
|---|---|
| Flight time | N/A |
| Altitude | 33000 |
| Route | CINDY8S/18 CINDY Z74 LAMPU DCT NOMBO Y161 MAH DCT VAVOR DCT RADIZ DCT KUSIB DCT OKSIG DCT MARIL DCT BOSNA DCT PODOB DCT MEDUX UM867 KOGAT DCT ERANA UL737 TSL UN130 PIVOS N130 MES G18 URNIL |
| Aircraft | A321/M-SDE3FGHIRWY/LB1 |
Departure
| Time | 2026-05-06 14:17 |
|---|---|
| Airport | Frankfurt Main Airport (EDDF) |
Arrival
| Time | N/A |
|---|---|
| Airport | Samos Airport (LGSM) |
| Time | Latitude | Longitude | Altitude | Speed | Heading |
|---|---|---|---|---|---|
| 2026-05-06 13:44 | 50.03867 | 8.54788 | 352 ft | 0 kts | 160° |
| 2026-05-06 14:10 | 50.03860 | 8.54792 | 356 ft | 5 kts | 160° |
| 2026-05-06 14:10 | 50.03809 | 8.54821 | 349 ft | 8 kts | 160° |
| 2026-05-06 14:10 | 50.03768 | 8.54776 | 355 ft | 9 kts | 247° |
| 2026-05-06 14:10 | 50.03743 | 8.54671 | 349 ft | 13 kts | 249° |
| 2026-05-06 14:11 | 50.03703 | 8.54506 | 345 ft | 21 kts | 249° |
| 2026-05-06 14:11 | 50.03647 | 8.54272 | 349 ft | 24 kts | 250° |
| 2026-05-06 14:11 | 50.03591 | 8.54037 | 337 ft | 23 kts | 250° |
| 2026-05-06 14:11 | 50.03537 | 8.53809 | 339 ft | 22 kts | 250° |
| 2026-05-06 14:12 | 50.03484 | 8.53587 | 337 ft | 21 kts | 249° |
| 2026-05-06 14:12 | 50.03432 | 8.53372 | 334 ft | 21 kts | 249° |
| 2026-05-06 14:12 | 50.03382 | 8.53166 | 334 ft | 20 kts | 249° |
| 2026-05-06 14:12 | 50.03333 | 8.52961 | 334 ft | 20 kts | 250° |
| 2026-05-06 14:13 | 50.03299 | 8.52815 | 332 ft | 11 kts | 250° |
| 2026-05-06 14:13 | 50.03272 | 8.52703 | 332 ft | 11 kts | 250° |
| 2026-05-06 14:13 | 50.03240 | 8.52615 | 334 ft | 9 kts | 229° |
| 2026-05-06 14:13 | 50.03200 | 8.52596 | 333 ft | 0 kts | 180° |
| 2026-05-06 14:15 | 50.03150 | 8.52596 | 333 ft | 26 kts | 180° |
| 2026-05-06 14:16 | 50.02725 | 8.52598 | 335 ft | 93 kts | 179° |
| 2026-05-06 14:16 | 50.01914 | 8.52606 | 335 ft | 143 kts | 180° |
| 2026-05-06 14:16 | 50.00883 | 8.52619 | 333 ft | 178 kts | 183° |
| 2026-05-06 14:16 | 50.00041 | 8.52632 | 668 ft | 177 kts | 182° |
| 2026-05-06 14:17 | 49.99109 | 8.52644 | 1296 ft | 167 kts | 182° |
| 2026-05-06 14:17 | 49.97992 | 8.52654 | 1822 ft | 174 kts | 182° |
| 2026-05-06 14:17 | 49.96802 | 8.53138 | 1976 ft | 199 kts | 150° |
| 2026-05-06 14:17 | 49.96038 | 8.54408 | 2071 ft | 216 kts | 116° |